Milmont Park, Pennsylvania
Current Conditions -  °F | °C
As of 9:54 AM on Sunday 23 Nov 2014 (Local Time) from KPHL Reporting Station
Broken Clouds Broken Clouds  
Wind Chill: 43°   Ceiling: 25000
Heat Index: 48°   Visibility: 10mi
Dew Point: 23°   Wind: 12mph
Humidity: 37%   Direction: 220°SW
Pressure: 30.23"   Gusts: NA
Location:  39.8911°N, 75.3286°W
Report Text: KPHL 231454Z 22010KT 10SM FEW090 SCT160 BKN250 09/M05 A3023 RMK AO2 SLP235 T00891050 58004 $
Loading
Personal Weather Stations






























Interactive Weather Map New forecast layout! Learn more

10-Day Weather Forecast

Advertisements
Track Severe Weather on mobile